Terminal Aerodrome Forecast
Issued by NWS

Current Version | Previous Version | Graphics & Text | Print | Product List | Glossary Off
Versions: 1 2 3 4 5 6 7 8 9 10 11 12 13 14 15 16 17 18 19 20 21

353
FTUS42 KILM 262320
TAFCRE
TAF
KCRE 262320Z 2700/2724 20010KT P6SM SKC
     FM270900 21005KT P6SM FEW200
     FM271500 20012KT P6SM FEW045=

USA.gov is the U.S. government's official web portal to all federal, state and local government web resources and services.